Time;durP1;ratioP1;P1;durP2;ratioP2;P2;SDS_P1;SDS_P2;PMS_P1;PMS_P2;Temp;Humidity;BMP_temperature;BMP_pressure;BME280_temperature;BME280_humidity;BME280_pressure;Samples;Min_cycle;Max_cycle;Signal;HPM_P1;HPM_P2
2021/12/25 00:01:40;;;;;;;;;;;6.60;99.90;;;;;;4996341;28;19910;-77
2021/12/25 00:04:07;;;;;;;;;;;6.60;99.90;;;;;;4996267;28;19909;-83
2021/12/25 00:06:33;;;;;;;;;;;6.70;99.90;;;;;;4996120;28;20350;-78
2021/12/25 00:08:59;;;;;;;;;;;6.60;99.90;;;;;;4996308;28;20309;-79
2021/12/25 00:11:24;;;;;;;;;;;6.60;99.90;;;;;;4980451;28;19992;-77
2021/12/25 00:13:50;;;;;;;;;;;6.50;99.90;;;;;;4997929;28;20338;-77
2021/12/25 00:16:16;;;;;;;;;;;6.40;99.90;;;;;;4996139;28;20011;-78
2021/12/25 00:18:41;;;;;;;;;;;6.40;99.90;;;;;;4997605;28;19932;-79
2021/12/25 00:21:08;;;;;;;;;;;6.40;99.90;;;;;;4980007;28;19914;-84
2021/12/25 00:23:33;;;;;;;;;;;6.40;99.90;;;;;;4980064;28;19917;-77
2021/12/25 00:26:36;;;;;;;;;;;6.40;99.90;;;;;;4997355;28;19905;-77
2021/12/25 00:28:59;;;;;;;;;;;6.30;99.90;;;;;;4996105;28;19909;-77
2021/12/25 00:31:41;;;;;;;;;;;6.30;99.90;;;;;;4981085;28;19910;-77
2021/12/25 00:34:07;;;;;;;;;;;6.30;99.90;;;;;;4995590;28;19910;-78
2021/12/25 00:36:32;;;;;;;;;;;6.30;99.90;;;;;;4995384;28;19986;-78
2021/12/25 00:38:58;;;;;;;;;;;6.30;99.90;;;;;;4995168;28;20290;-78
2021/12/25 00:41:24;;;;;;;;;;;6.30;99.90;;;;;;4979476;28;19910;-78
2021/12/25 00:43:50;;;;;;;;;;;6.20;99.90;;;;;;4995234;28;20457;-78
2021/12/25 00:46:16;;;;;;;;;;;6.20;99.90;;;;;;4996728;28;19906;-76
2021/12/25 00:48:41;;;;;;;;;;;6.20;99.90;;;;;;4995153;28;20013;-76
2021/12/25 00:51:11;;;;;;;;;;;6.20;99.90;;;;;;4996800;28;19961;-81
2021/12/25 00:53:36;;;;;;;;;;;6.20;99.90;;;;;;4995400;28;19906;-77
2021/12/25 00:56:02;;;;;;;;;;;6.20;99.90;;;;;;4995389;28;20393;-78
2021/12/25 00:58:28;;;;;;;;;;;6.30;99.90;;;;;;4996159;28;19913;-78
2021/12/25 01:00:53;;;;;;;;;;;6.20;99.90;;;;;;4980052;28;20358;-78
2021/12/25 01:03:19;;;;;;;;;;;6.20;99.90;;;;;;4995633;28;19905;-78
2021/12/25 01:05:44;;;;;;;;;;;6.20;99.90;;;;;;4996014;28;19910;-78
2021/12/25 01:08:10;;;;;;;;;;;6.20;99.90;;;;;;4994945;28;19916;-79
2021/12/25 01:10:36;;;;;;;;;;;6.20;99.90;;;;;;4996038;28;19916;-77
2021/12/25 01:13:11;;;;;;;;;;;6.10;99.90;;;;;;4994737;28;19917;-78
2021/12/25 01:37:15;;;;;;;;;;;6.00;99.90;;;;;;4995717;28;19922;-78
2021/12/25 01:47:55;;;;;;;;;;;5.90;99.90;;;;;;4973911;28;20069;-77
2021/12/25 01:50:24;;;;;;;;;;;5.90;99.90;;;;;;4991519;28;20302;-78
2021/12/25 01:52:50;;;;;;;;;;;5.80;99.90;;;;;;4994813;28;19905;-77
2021/12/25 01:55:19;;;;;;;;;;;5.80;99.90;;;;;;4994680;28;20051;-77
2021/12/25 01:57:44;;;;;;;;;;;5.70;99.90;;;;;;4995729;28;19929;-80
2021/12/25 02:00:16;;;;;;;;;;;5.70;99.90;;;;;;4979286;28;19918;-80
2021/12/25 02:02:42;;;;;;;;;;;5.70;99.90;;;;;;4995947;28;19906;-79
2021/12/25 02:05:08;;;;;;;;;;;5.70;99.90;;;;;;4996733;28;19913;-77
2021/12/25 02:07:33;;;;;;;;;;;5.60;99.90;;;;;;4996010;28;19907;-77
2021/12/25 02:09:59;;;;;;;;;;;5.60;99.90;;;;;;4994630;28;19960;-77
2021/12/25 02:12:24;;;;;;;;;;;5.60;99.90;;;;;;4994622;28;19961;-81
2021/12/25 02:14:51;;;;;;;;;;;5.50;99.90;;;;;;4993903;28;19905;-78
2021/12/25 02:17:27;;;;;;;;;;;5.50;99.90;;;;;;4978410;28;19941;-78
2021/12/25 02:20:13;;;;;;;;;;;5.50;99.90;;;;;;4994460;28;19910;-77
2021/12/25 02:22:39;;;;;;;;;;;5.50;99.90;;;;;;4994659;28;19906;-78
2021/12/25 02:25:05;;;;;;;;;;;5.50;99.90;;;;;;4994397;28;19916;-78
2021/12/25 02:27:31;;;;;;;;;;;5.40;99.90;;;;;;4995841;28;20255;-79
2021/12/25 02:29:56;;;;;;;;;;;5.40;99.90;;;;;;4994082;28;19910;-78
2021/12/25 02:32:22;;;;;;;;;;;5.30;99.90;;;;;;4993750;28;19906;-82
2021/12/25 02:34:49;;;;;;;;;;;5.30;99.90;;;;;;4995054;28;19914;-78
2021/12/25 02:37:15;;;;;;;;;;;5.30;99.90;;;;;;4994727;28;20404;-78
2021/12/25 02:39:40;;;;;;;;;;;5.30;99.90;;;;;;4995931;28;19909;-78
2021/12/25 02:42:06;;;;;;;;;;;5.30;99.90;;;;;;4995450;28;19909;-79
2021/12/25 02:44:32;;;;;;;;;;;5.40;99.90;;;;;;4995153;28;19912;-79
2021/12/25 02:47:05;;;;;;;;;;;5.30;99.90;;;;;;4993861;28;19952;-77
2021/12/25 02:49:30;;;;;;;;;;;5.30;99.90;;;;;;4994624;28;20310;-78
2021/12/25 02:51:56;;;;;;;;;;;5.20;99.90;;;;;;4994862;28;19906;-78
2021/12/25 02:54:21;;;;;;;;;;;5.20;99.90;;;;;;4993218;28;19910;-77
2021/12/25 02:56:47;;;;;;;;;;;5.10;99.90;;;;;;4993169;28;19910;-79
2021/12/25 02:59:13;;;;;;;;;;;5.10;99.90;;;;;;4993504;28;19932;-77
2021/12/25 03:01:38;;;;;;;;;;;5.10;99.90;;;;;;4993412;28;19910;-79
2021/12/25 03:04:04;;;;;;;;;;;5.00;99.90;;;;;;4993455;28;19916;-76
2021/12/25 03:06:33;;;;;;;;;;;4.90;99.90;;;;;;4993727;28;20013;-77
2021/12/25 03:08:59;;;;;;;;;;;4.90;99.90;;;;;;4994354;28;19912;-78
2021/12/25 03:11:24;;;;;;;;;;;4.80;99.90;;;;;;4995105;28;19944;-79
2021/12/25 03:13:58;;;;;;;;;;;4.70;99.90;;;;;;4995030;28;19914;-77
2021/12/25 03:16:24;;;;;;;;;;;4.60;99.90;;;;;;4995909;28;19917;-77
2021/12/25 03:18:52;;;;;;;;;;;4.60;99.90;;;;;;4994704;28;19910;-77
2021/12/25 03:21:19;;;;;;;;;;;4.50;99.90;;;;;;4979000;28;19910;-78
2021/12/25 03:23:45;;;;;;;;;;;4.40;99.90;;;;;;4995889;28;19906;-77
2021/12/25 03:26:11;;;;;;;;;;;4.40;99.90;;;;;;4995936;28;19906;-77
2021/12/25 03:28:39;;;;;;;;;;;4.30;99.90;;;;;;4978864;28;19916;-77
2021/12/25 03:31:12;;;;;;;;;;;4.20;99.90;;;;;;4995512;28;19910;-81
2021/12/25 03:33:38;;;;;;;;;;;4.10;99.90;;;;;;4995471;28;19927;-77
2021/12/25 03:36:04;;;;;;;;;;;4.10;99.90;;;;;;4996203;28;19914;-78
2021/12/25 03:38:30;;;;;;;;;;;4.00;99.90;;;;;;4978920;28;19922;-84
2021/12/25 03:40:56;;;;;;;;;;;4.10;99.90;;;;;;4995823;28;19914;-77
2021/12/25 03:43:22;;;;;;;;;;;4.10;99.90;;;;;;4995526;28;19912;-78
2021/12/25 03:45:47;;;;;;;;;;;4.10;99.90;;;;;;4996976;28;19906;-77
2021/12/25 03:59:01;;;;;;;;;;;3.90;99.90;;;;;;5000138;28;19978;-77
2021/12/25 04:01:45;;;;;;;;;;;3.80;99.90;;;;;;4998081;28;19926;-77
2021/12/25 04:06:46;;;;;;;;;;;3.70;99.90;;;;;;4998424;28;20015;-77
2021/12/25 04:09:22;;;;;;;;;;;3.80;99.90;;;;;;4996928;28;19947;-76
2021/12/25 04:11:48;;;;;;;;;;;3.70;99.90;;;;;;5000387;28;19957;-78
2021/12/25 04:14:14;;;;;;;;;;;3.60;99.90;;;;;;5002009;28;19906;-77
2021/12/25 04:16:39;;;;;;;;;;;3.70;99.90;;;;;;5004854;28;19925;-76
2021/12/25 04:19:05;;;;;;;;;;;3.60;99.90;;;;;;5004250;28;19976;-78
2021/12/25 04:21:30;;;;;;;;;;;3.70;99.90;;;;;;5007199;28;20255;-77
2021/12/25 04:23:56;;;;;;;;;;;3.60;99.90;;;;;;5007493;28;19906;-78
2021/12/25 04:26:24;;;;;;;;;;;3.50;99.90;;;;;;5006506;28;19906;-79
2021/12/25 04:29:04;;;;;;;;;;;3.40;99.90;;;;;;5008817;28;20048;-77
2021/12/25 04:31:59;;;;;;;;;;;3.40;99.90;;;;;;5008933;28;19910;-78
2021/12/25 04:42:53;;;;;;;;;;;3.40;99.90;;;;;;4998308;28;19916;-78
2021/12/25 05:04:07;;;;;;;;;;;3.00;99.90;;;;;;4996822;28;19924;-78
2021/12/25 05:06:32;;;;;;;;;;;3.00;99.90;;;;;;4980819;28;20235;-78
2021/12/25 05:08:58;;;;;;;;;;;3.00;99.90;;;;;;4993932;28;19906;-78
2021/12/25 05:11:23;;;;;;;;;;;3.00;99.90;;;;;;4995821;28;19961;-79
2021/12/25 05:13:50;;;;;;;;;;;3.00;99.90;;;;;;4996173;28;19968;-80
2021/12/25 05:16:19;;;;;;;;;;;3.00;99.90;;;;;;4995010;28;19961;-80
2021/12/25 05:18:45;;;;;;;;;;;3.00;99.90;;;;;;4996202;28;19910;-80
2021/12/25 05:21:12;;;;;;;;;;;3.00;99.90;;;;;;4978929;28;19980;-80
2021/12/25 05:23:38;;;;;;;;;;;2.80;99.90;;;;;;4995032;28;19948;-79
2021/12/25 05:26:04;;;;;;;;;;;2.80;99.90;;;;;;4995190;28;19906;-79
2021/12/25 05:28:38;;;;;;;;;;;2.70;99.90;;;;;;4994729;28;19916;-79
2021/12/25 05:31:04;;;;;;;;;;;2.70;99.90;;;;;;4980178;28;19910;-79
2021/12/25 05:33:30;;;;;;;;;;;2.70;99.90;;;;;;4978567;28;19917;-78
2021/12/25 05:35:55;;;;;;;;;;;2.80;99.90;;;;;;4994417;28;20011;-79
2021/12/25 05:38:22;;;;;;;;;;;2.80;99.90;;;;;;4994197;28;19971;-79
2021/12/25 05:40:48;;;;;;;;;;;2.70;99.90;;;;;;4994406;28;20331;-79
2021/12/25 05:43:14;;;;;;;;;;;2.70;99.90;;;;;;4994419;28;20004;-79
2021/12/25 05:45:40;;;;;;;;;;;2.70;99.90;;;;;;4993913;28;19945;-78
2021/12/25 05:48:05;;;;;;;;;;;2.50;99.90;;;;;;4993636;28;19905;-78
2021/12/25 05:50:31;;;;;;;;;;;2.50;99.90;;;;;;4994497;28;19916;-78
2021/12/25 05:52:57;;;;;;;;;;;2.50;99.90;;;;;;4993939;28;20283;-78
2021/12/25 05:55:23;;;;;;;;;;;2.50;99.90;;;;;;4993945;28;19921;-78
2021/12/25 05:57:49;;;;;;;;;;;2.50;99.90;;;;;;4995782;28;19909;-78
2021/12/25 06:00:15;;;;;;;;;;;2.30;99.90;;;;;;4994940;28;19917;-78
2021/12/25 06:02:40;;;;;;;;;;;2.10;99.90;;;;;;4993884;28;19913;-78
2021/12/25 06:05:06;;;;;;;;;;;2.10;99.90;;;;;;4994577;28;19908;-79
2021/12/25 06:07:32;;;;;;;;;;;2.10;99.90;;;;;;4993644;28;19964;-79
2021/12/25 06:09:57;;;;;;;;;;;2.10;99.90;;;;;;4995147;28;19906;-79
2021/12/25 06:12:24;;;;;;;;;;;2.00;99.90;;;;;;4993623;28;20025;-79
2021/12/25 06:14:51;;;;;;;;;;;1.80;99.90;;;;;;4994704;28;19910;-80
2021/12/25 06:17:17;;;;;;;;;;;1.70;99.90;;;;;;4993537;28;19920;-80
2021/12/25 06:19:43;;;;;;;;;;;1.80;99.90;;;;;;4993358;28;20321;-80
2021/12/25 06:22:08;;;;;;;;;;;1.70;99.90;;;;;;4993335;28;20278;-80
2021/12/25 06:24:34;;;;;;;;;;;1.70;99.90;;;;;;4993151;28;19913;-80
2021/12/25 06:26:59;;;;;;;;;;;1.70;99.90;;;;;;4993424;28;20306;-79
2021/12/25 06:29:25;;;;;;;;;;;1.70;99.90;;;;;;4994600;28;19968;-80
2021/12/25 06:31:52;;;;;;;;;;;1.60;99.90;;;;;;4993667;28;19910;-81
2021/12/25 06:34:18;;;;;;;;;;;1.50;99.90;;;;;;4993975;28;20005;-80
2021/12/25 06:36:44;;;;;;;;;;;1.50;99.90;;;;;;4993531;28;20009;-79
2021/12/25 06:39:14;;;;;;;;;;;1.50;99.90;;;;;;4995502;28;20386;-79
2021/12/25 06:41:41;;;;;;;;;;;1.50;99.90;;;;;;4977867;28;19961;-79
2021/12/25 06:44:06;;;;;;;;;;;1.40;99.90;;;;;;4993447;28;20043;-79
2021/12/25 06:46:32;;;;;;;;;;;1.30;99.90;;;;;;4995706;28;20374;-80
2021/12/25 06:48:57;;;;;;;;;;;1.30;99.90;;;;;;4993610;28;20056;-80
2021/12/25 06:51:23;;;;;;;;;;;1.30;99.90;;;;;;4994032;28;20258;-80
2021/12/25 06:53:49;;;;;;;;;;;1.40;99.90;;;;;;4993459;28;20277;-79
2021/12/25 06:56:14;;;;;;;;;;;1.40;99.90;;;;;;4992542;28;20313;-80
2021/12/25 06:58:40;;;;;;;;;;;1.30;99.90;;;;;;4993764;28;20345;-81
2021/12/25 07:01:05;;;;;;;;;;;1.40;99.90;;;;;;4992638;28;19916;-79
2021/12/25 07:03:31;;;;;;;;;;;1.30;99.90;;;;;;4976328;28;19909;-79
2021/12/25 07:05:57;;;;;;;;;;;1.30;99.90;;;;;;4992171;28;20001;-79
2021/12/25 07:08:22;;;;;;;;;;;1.40;99.90;;;;;;4976109;28;19910;-78
2021/12/25 07:10:48;;;;;;;;;;;1.30;99.90;;;;;;4992254;28;19945;-79
2021/12/25 07:13:18;;;;;;;;;;;1.30;99.90;;;;;;4993894;28;20187;-80
2021/12/25 07:15:43;;;;;;;;;;;1.30;99.90;;;;;;4993250;28;19959;-80
2021/12/25 07:18:09;;;;;;;;;;;1.30;99.90;;;;;;4993276;28;19997;-80
2021/12/25 07:20:34;;;;;;;;;;;1.30;99.90;;;;;;4993681;28;19910;-79
2021/12/25 07:23:00;;;;;;;;;;;1.30;99.90;;;;;;4976083;28;20304;-80
2021/12/25 07:25:26;;;;;;;;;;;1.30;99.90;;;;;;4976103;28;19914;-80
2021/12/25 07:27:52;;;;;;;;;;;1.30;99.90;;;;;;4993736;28;19913;-79
2021/12/25 07:30:18;;;;;;;;;;;1.30;99.90;;;;;;4994129;28;19952;-80
2021/12/25 07:32:44;;;;;;;;;;;1.20;99.90;;;;;;4996111;28;19913;-80
2021/12/25 07:35:10;;;;;;;;;;;1.20;99.90;;;;;;4999969;28;20279;-80
2021/12/25 07:37:35;;;;;;;;;;;1.20;99.90;;;;;;4997817;28;19964;-80
2021/12/25 07:40:03;;;;;;;;;;;1.20;99.90;;;;;;5002095;28;20347;-81
2021/12/25 07:42:29;;;;;;;;;;;1.10;99.90;;;;;;4998364;28;19920;-80
2021/12/25 07:45:02;;;;;;;;;;;1.20;99.90;;;;;;4997152;28;20481;-81
2021/12/25 07:47:27;;;;;;;;;;;1.20;99.90;;;;;;4981408;28;19968;-81
2021/12/25 07:49:56;;;;;;;;;;;1.30;99.90;;;;;;4982157;28;20323;-79
2021/12/25 07:52:22;;;;;;;;;;;1.20;99.90;;;;;;4999576;28;20471;-80
2021/12/25 07:54:47;;;;;;;;;;;1.20;99.90;;;;;;4981071;28;20022;-80
2021/12/25 07:57:13;;;;;;;;;;;1.10;99.90;;;;;;4996763;28;20315;-80
2021/12/25 07:59:38;;;;;;;;;;;1.10;99.90;;;;;;4996421;28;19917;-79
2021/12/25 08:02:04;;;;;;;;;;;1.10;99.90;;;;;;4982483;28;19916;-79
2021/12/25 08:04:29;;;;;;;;;;;1.00;99.90;;;;;;4997843;28;20306;-80
2021/12/25 08:06:55;;;;;;;;;;;1.00;99.90;;;;;;4980508;28;20116;-80
2021/12/25 08:09:28;;;;;;;;;;;1.10;99.90;;;;;;4996193;28;19902;-79
2021/12/25 08:11:54;;;;;;;;;;;1.10;99.90;;;;;;4995523;28;20334;-80
2021/12/25 08:14:23;;;;;;;;;;;1.00;99.90;;;;;;4996219;28;19909;-80
2021/12/25 08:16:48;;;;;;;;;;;1.00;99.90;;;;;;4997421;28;19926;-80
2021/12/25 08:19:14;;;;;;;;;;;1.00;99.90;;;;;;4981107;28;19976;-78
2021/12/25 08:21:39;;;;;;;;;;;1.00;99.90;;;;;;4996366;28;19910;-81
2021/12/25 08:24:05;;;;;;;;;;;1.10;99.90;;;;;;4995358;28;20318;-80
2021/12/25 08:26:30;;;;;;;;;;;1.00;99.90;;;;;;4995682;28;19909;-80
2021/12/25 08:28:56;;;;;;;;;;;1.10;99.90;;;;;;4995156;28;19910;-80
2021/12/25 08:31:21;;;;;;;;;;;1.10;99.90;;;;;;4995210;28;19910;-79
2021/12/25 08:33:47;;;;;;;;;;;1.00;99.90;;;;;;4979411;28;20022;-79
2021/12/25 08:36:13;;;;;;;;;;;0.90;99.90;;;;;;4994810;28;20259;-79
2021/12/25 08:38:38;;;;;;;;;;;0.80;99.90;;;;;;4994754;28;20004;-79
2021/12/25 08:41:04;;;;;;;;;;;0.80;99.90;;;;;;4995006;28;19910;-84
2021/12/25 08:43:34;;;;;;;;;;;0.80;99.90;;;;;;4994507;28;20274;-79
2021/12/25 08:46:12;;;;;;;;;;;0.90;99.90;;;;;;4979072;28;20022;-79
2021/12/25 08:48:37;;;;;;;;;;;0.90;99.90;;;;;;4994886;28;19905;-79
2021/12/25 08:51:03;;;;;;;;;;;0.90;99.90;;;;;;4994430;28;19909;-79
2021/12/25 08:53:30;;;;;;;;;;;0.90;99.90;;;;;;4994879;28;19905;-80
2021/12/25 08:55:57;;;;;;;;;;;0.90;99.90;;;;;;4995189;28;19921;-80
2021/12/25 08:58:23;;;;;;;;;;;0.90;99.90;;;;;;4995378;28;19906;-79
2021/12/25 09:00:54;;;;;;;;;;;0.90;99.90;;;;;;4994601;28;19944;-80
2021/12/25 09:03:20;;;;;;;;;;;0.90;99.90;;;;;;4994826;28;20303;-79
2021/12/25 09:05:46;;;;;;;;;;;0.90;99.90;;;;;;4996006;28;19928;-79
2021/12/25 09:08:11;;;;;;;;;;;1.00;99.90;;;;;;4994824;28;19906;-80
2021/12/25 09:10:37;;;;;;;;;;;0.90;99.90;;;;;;4995306;28;19932;-79
2021/12/25 09:13:03;;;;;;;;;;;0.90;99.90;;;;;;4995985;28;19916;-79
2021/12/25 09:15:28;;;;;;;;;;;0.90;99.90;;;;;;4995828;28;19938;-80
2021/12/25 09:17:54;;;;;;;;;;;0.90;99.90;;;;;;4994642;28;19929;-78
2021/12/25 09:20:20;;;;;;;;;;;0.90;99.90;;;;;;4978169;28;20246;-79
2021/12/25 09:22:46;;;;;;;;;;;0.90;99.90;;;;;;4995734;28;20331;-78
2021/12/25 09:25:11;;;;;;;;;;;0.90;99.90;;;;;;4993946;28;19920;-81
2021/12/25 09:27:37;;;;;;;;;;;0.90;99.90;;;;;;4995199;28;20036;-78
2021/12/25 09:30:03;;;;;;;;;;;0.80;99.90;;;;;;4993906;28;19909;-78
2021/12/25 09:32:29;;;;;;;;;;;0.90;99.90;;;;;;4994723;28;19912;-78
2021/12/25 09:34:54;;;;;;;;;;;0.90;99.90;;;;;;4995716;28;19913;-78
2021/12/25 09:37:20;;;;;;;;;;;1.00;99.90;;;;;;4995005;28;19914;-78
2021/12/25 09:39:46;;;;;;;;;;;1.00;99.90;;;;;;4995060;28;19918;-78
2021/12/25 09:42:11;;;;;;;;;;;1.00;99.90;;;;;;4994091;28;20273;-85
2021/12/25 09:44:37;;;;;;;;;;;1.00;99.90;;;;;;4993147;28;19996;-79
2021/12/25 09:47:03;;;;;;;;;;;1.10;99.90;;;;;;4993159;28;19909;-78
2021/12/25 09:49:29;;;;;;;;;;;1.10;99.90;;;;;;4992780;28;19953;-78
2021/12/25 09:51:55;;;;;;;;;;;1.00;99.90;;;;;;4993095;28;19979;-79
2021/12/25 09:54:21;;;;;;;;;;;1.00;99.90;;;;;;4975967;28;19917;-79
2021/12/25 09:56:47;;;;;;;;;;;1.00;99.90;;;;;;4992648;28;20423;-78
2021/12/25 09:59:13;;;;;;;;;;;1.10;99.90;;;;;;4994050;28;19910;-80
2021/12/25 10:01:43;;;;;;;;;;;1.10;99.90;;;;;;4992979;28;19910;-78
2021/12/25 10:04:11;;;;;;;;;;;1.10;99.90;;;;;;4992905;28;19912;-78
2021/12/25 10:06:38;;;;;;;;;;;1.10;99.90;;;;;;4993321;28;19906;-80
2021/12/25 10:09:30;;;;;;;;;;;1.10;99.90;;;;;;4994532;28;19906;-79
2021/12/25 10:12:16;;;;;;;;;;;1.20;99.90;;;;;;4991361;28;20046;-79
2021/12/25 10:14:43;;;;;;;;;;;1.30;99.90;;;;;;4992460;28;19905;-79
2021/12/25 10:17:19;;;;;;;;;;;1.20;99.90;;;;;;4994231;28;20274;-80
2021/12/25 10:20:01;;;;;;;;;;;1.20;99.90;;;;;;4992786;28;20020;-80
2021/12/25 10:22:27;;;;;;;;;;;1.10;99.90;;;;;;4993063;28;19913;-79
2021/12/25 10:25:06;;;;;;;;;;;1.10;99.90;;;;;;4993503;28;19905;-79
2021/12/25 10:27:31;;;;;;;;;;;1.00;99.90;;;;;;4992834;28;20342;-78
2021/12/25 10:30:01;;;;;;;;;;;1.00;99.90;;;;;;4977509;28;19917;-79
2021/12/25 10:32:26;;;;;;;;;;;1.10;99.90;;;;;;4992601;28;20012;-80
2021/12/25 10:34:53;;;;;;;;;;;1.10;99.90;;;;;;4992970;28;20322;-79
2021/12/25 10:37:21;;;;;;;;;;;1.10;99.90;;;;;;4992619;28;20373;-84
2021/12/25 10:39:48;;;;;;;;;;;1.10;99.90;;;;;;4956101;28;1112487;-78
2021/12/25 10:42:17;;;;;;;;;;;1.10;99.90;;;;;;4994321;28;19910;-78
2021/12/25 10:44:50;;;;;;;;;;;1.20;99.90;;;;;;4993450;28;19906;-78
2021/12/25 10:47:18;;;;;;;;;;;1.10;99.90;;;;;;4993317;28;19906;-79
2021/12/25 10:49:51;;;;;;;;;;;1.00;99.90;;;;;;4994711;28;19913;-79
2021/12/25 10:52:27;;;;;;;;;;;1.00;99.90;;;;;;4994495;28;19906;-78
2021/12/25 10:54:59;;;;;;;;;;;1.00;99.90;;;;;;4993146;28;19969;-79
2021/12/25 10:57:32;;;;;;;;;;;1.00;99.90;;;;;;4994470;28;19914;-80
2021/12/25 10:59:58;;;;;;;;;;;1.00;99.90;;;;;;4994906;28;20346;-80
2021/12/25 11:02:43;;;;;;;;;;;1.00;99.90;;;;;;4994400;28;20004;-80
2021/12/25 11:05:27;;;;;;;;;;;1.00;99.90;;;;;;4994594;28;20302;-79
2021/12/25 11:08:07;;;;;;;;;;;1.00;99.90;;;;;;4992915;28;19945;-81
2021/12/25 11:10:48;;;;;;;;;;;1.10;99.90;;;;;;4993605;28;19952;-80
2021/12/25 11:13:31;;;;;;;;;;;1.00;99.90;;;;;;4994578;28;19960;-79
2021/12/25 11:16:06;;;;;;;;;;;1.00;99.90;;;;;;4994484;28;19968;-79
2021/12/25 11:18:33;;;;;;;;;;;1.10;99.90;;;;;;4993969;28;19933;-79
2021/12/25 11:20:59;;;;;;;;;;;1.10;99.90;;;;;;4993265;28;19906;-83
2021/12/25 11:23:26;;;;;;;;;;;1.10;99.90;;;;;;4976997;28;20340;-82
2021/12/25 11:25:52;;;;;;;;;;;1.10;99.90;;;;;;4993485;28;19905;-81
2021/12/25 11:28:18;;;;;;;;;;;1.00;99.90;;;;;;4993763;28;19905;-80
2021/12/25 11:30:46;;;;;;;;;;;0.90;99.90;;;;;;4993769;28;20017;-81
2021/12/25 11:33:11;;;;;;;;;;;0.90;99.90;;;;;;4994536;28;19913;-79
2021/12/25 11:35:40;;;;;;;;;;;1.00;99.90;;;;;;4993170;28;19913;-80
2021/12/25 11:38:08;;;;;;;;;;;1.00;99.90;;;;;;4993422;28;20359;-81
2021/12/25 11:40:35;;;;;;;;;;;1.10;99.90;;;;;;4995393;28;20007;-81
2021/12/25 11:43:04;;;;;;;;;;;1.10;99.90;;;;;;4993396;28;19922;-80
2021/12/25 11:45:33;;;;;;;;;;;1.10;99.90;;;;;;4994467;28;19928;-80
2021/12/25 11:48:00;;;;;;;;;;;1.00;99.90;;;;;;4994233;28;19913;-79
2021/12/25 11:50:32;;;;;;;;;;;1.20;99.90;;;;;;4993889;28;19949;-82
2021/12/25 11:53:05;;;;;;;;;;;1.30;99.90;;;;;;4993537;28;20305;-79
2021/12/25 11:56:16;;;;;;;;;;;1.10;99.90;;;;;;4994723;28;19905;-80
2021/12/25 11:58:39;;;;;;;;;;;1.20;99.90;;;;;;4993965;28;19906;-79
2021/12/25 12:01:16;;;;;;;;;;;1.30;99.90;;;;;;4993668;28;20216;-79
2021/12/25 12:03:44;;;;;;;;;;;1.20;99.90;;;;;;4993741;28;19913;-79
2021/12/25 12:06:12;;;;;;;;;;;1.20;99.90;;;;;;4992964;28;19922;-79
2021/12/25 12:08:53;;;;;;;;;;;1.20;99.90;;;;;;4995163;28;20032;-80
2021/12/25 12:11:26;;;;;;;;;;;1.20;99.90;;;;;;4994086;28;19906;-79
2021/12/25 12:14:10;;;;;;;;;;;1.20;99.90;;;;;;4992375;28;19948;-80
2021/12/25 12:16:37;;;;;;;;;;;1.10;99.90;;;;;;4992379;28;19913;-80
2021/12/25 12:19:03;;;;;;;;;;;1.10;99.90;;;;;;4995684;28;20000;-80
2021/12/25 12:21:37;;;;;;;;;;;1.20;99.90;;;;;;4996088;28;19999;-83
2021/12/25 12:27:42;;;;;;;;;;;1.30;99.90;;;;;;4994515;28;19984;-80
2021/12/25 12:30:10;;;;;;;;;;;1.20;99.90;;;;;;4994353;28;19905;-80
2021/12/25 12:32:46;;;;;;;;;;;1.20;99.90;;;;;;4995302;28;19932;-80
2021/12/25 12:35:26;;;;;;;;;;;1.20;99.90;;;;;;4996756;28;20006;-80
2021/12/25 12:37:52;;;;;;;;;;;1.20;99.90;;;;;;4996412;28;19916;-80
2021/12/25 12:40:18;;;;;;;;;;;1.20;99.90;;;;;;4997120;28;19917;-80
2021/12/25 12:42:46;;;;;;;;;;;1.30;99.90;;;;;;4996213;28;19910;-80
2021/12/25 12:45:14;;;;;;;;;;;1.30;99.90;;;;;;4995008;28;20392;-79
2021/12/25 12:47:40;;;;;;;;;;;1.30;99.90;;;;;;4994982;28;19913;-80
2021/12/25 12:50:06;;;;;;;;;;;1.30;99.90;;;;;;4995165;28;19909;-79
2021/12/25 12:52:35;;;;;;;;;;;1.30;99.90;;;;;;4995563;28;20350;-81
2021/12/25 12:55:11;;;;;;;;;;;1.30;99.90;;;;;;4996860;28;19944;-79
2021/12/25 12:57:37;;;;;;;;;;;1.30;99.90;;;;;;4994947;28;19956;-81
2021/12/25 13:00:14;;;;;;;;;;;1.30;99.90;;;;;;4995044;28;19917;-80
2021/12/25 13:02:44;;;;;;;;;;;1.30;99.90;;;;;;4994757;28;19960;-80
2021/12/25 13:05:09;;;;;;;;;;;1.30;99.90;;;;;;4994845;28;19910;-79
2021/12/25 13:07:37;;;;;;;;;;;1.30;99.60;;;;;;4978454;28;20016;-85
2021/12/25 13:10:09;;;;;;;;;;;1.30;99.90;;;;;;4994970;28;20310;-79
2021/12/25 13:15:03;;;;;;;;;;;1.40;99.90;;;;;;4996099;28;19944;-79
2021/12/25 13:17:29;;;;;;;;;;;1.50;99.90;;;;;;4994393;28;19936;-80
2021/12/25 13:19:54;;;;;;;;;;;1.40;99.90;;;;;;4994467;28;19910;-82
2021/12/25 13:22:20;;;;;;;;;;;1.50;99.90;;;;;;4995599;28;19913;-79
2021/12/25 13:24:47;;;;;;;;;;;1.60;99.90;;;;;;4994750;28;19975;-79
2021/12/25 13:27:17;;;;;;;;;;;1.60;99.20;;;;;;4995815;28;19913;-79
2021/12/25 13:29:43;;;;;;;;;;;1.50;99.30;;;;;;4993274;28;20364;-79
2021/12/25 13:32:08;;;;;;;;;;;1.40;99.10;;;;;;4995828;28;19917;-79
2021/12/25 13:34:36;;;;;;;;;;;1.30;99.50;;;;;;4994065;28;19905;-80
2021/12/25 13:37:03;;;;;;;;;;;1.30;99.80;;;;;;4995028;28;19909;-79
2021/12/25 13:39:31;;;;;;;;;;;1.20;99.40;;;;;;4993573;28;19921;-80
2021/12/25 13:42:05;;;;;;;;;;;1.20;99.60;;;;;;4994246;28;19921;-80
2021/12/25 13:44:34;;;;;;;;;;;1.20;99.70;;;;;;4997970;28;19972;-78
2021/12/25 13:47:21;;;;;;;;;;;1.20;99.70;;;;;;4996945;28;20238;-78
2021/12/25 13:49:50;;;;;;;;;;;1.20;99.90;;;;;;4996682;28;19910;-78
2021/12/25 13:52:19;;;;;;;;;;;1.20;99.60;;;;;;4994525;28;19912;-79
2021/12/25 13:54:46;;;;;;;;;;;1.10;99.50;;;;;;4994051;28;20351;-78
2021/12/25 13:57:13;;;;;;;;;;;1.20;99.90;;;;;;4993797;28;19918;-79
2021/12/25 13:59:39;;;;;;;;;;;1.20;99.90;;;;;;4994247;28;19906;-79
2021/12/25 14:02:09;;;;;;;;;;;1.20;99.90;;;;;;4977444;28;20012;-79
2021/12/25 14:04:35;;;;;;;;;;;1.20;99.90;;;;;;4994978;28;19906;-79
2021/12/25 14:07:01;;;;;;;;;;;1.20;99.60;;;;;;4994559;28;19902;-78
2021/12/25 14:09:27;;;;;;;;;;;1.20;99.90;;;;;;4993364;28;19954;-80
2021/12/25 14:11:54;;;;;;;;;;;1.20;99.90;;;;;;4995344;28;19913;-79
2021/12/25 14:14:20;;;;;;;;;;;1.20;99.90;;;;;;4993261;28;19929;-80
2021/12/25 14:16:46;;;;;;;;;;;1.30;99.70;;;;;;4994179;28;19914;-80
2021/12/25 14:19:13;;;;;;;;;;;1.20;99.60;;;;;;4977629;28;19910;-80
2021/12/25 14:21:39;;;;;;;;;;;1.20;99.90;;;;;;4993882;28;19910;-79
2021/12/25 14:24:14;;;;;;;;;;;1.30;99.90;;;;;;4993134;28;19964;-81
2021/12/25 14:26:40;;;;;;;;;;;1.40;99.50;;;;;;4994496;28;20385;-80
2021/12/25 14:29:28;;;;;;;;;;;1.40;99.90;;;;;;4976816;28;19910;-79
2021/12/25 14:31:53;;;;;;;;;;;1.40;99.90;;;;;;4992890;28;20334;-80
2021/12/25 14:34:26;;;;;;;;;;;1.50;99.90;;;;;;4978090;28;19945;-80
2021/12/25 14:36:52;;;;;;;;;;;1.60;99.90;;;;;;4994951;28;19914;-81
2021/12/25 14:39:18;;;;;;;;;;;1.60;99.90;;;;;;4995444;28;19980;-79
2021/12/25 14:41:44;;;;;;;;;;;1.50;99.90;;;;;;4993760;28;20062;-85
2021/12/25 14:44:23;;;;;;;;;;;1.50;99.90;;;;;;4977801;28;19913;-79
2021/12/25 14:47:04;;;;;;;;;;;1.50;99.80;;;;;;4993634;28;19912;-80
2021/12/25 14:49:36;;;;;;;;;;;1.40;99.90;;;;;;4994778;28;19942;-79
2021/12/25 14:52:02;;;;;;;;;;;1.60;99.90;;;;;;4993458;28;19913;-80
2021/12/25 14:54:29;;;;;;;;;;;1.60;99.70;;;;;;4993616;28;19906;-80
2021/12/25 14:56:56;;;;;;;;;;;1.50;99.80;;;;;;4993347;28;20285;-80
2021/12/25 14:59:24;;;;;;;;;;;1.60;99.90;;;;;;4994434;28;19910;-79
2021/12/25 15:01:51;;;;;;;;;;;1.60;99.50;;;;;;4994979;28;19993;-81
2021/12/25 15:04:21;;;;;;;;;;;1.60;99.70;;;;;;4993946;28;19912;-80
2021/12/25 15:06:49;;;;;;;;;;;1.60;99.50;;;;;;4993308;28;19952;-84
2021/12/25 15:09:18;;;;;;;;;;;1.60;99.30;;;;;;4993686;28;19909;-79
2021/12/25 15:11:55;;;;;;;;;;;1.70;99.70;;;;;;4993443;28;19906;-79
2021/12/25 15:14:28;;;;;;;;;;;1.80;99.70;;;;;;4993621;28;19952;-79
2021/12/25 15:16:58;;;;;;;;;;;1.70;99.20;;;;;;4994943;28;19914;-81
2021/12/25 15:19:25;;;;;;;;;;;1.70;99.20;;;;;;4993265;28;19906;-80
2021/12/25 15:21:52;;;;;;;;;;;1.70;99.00;;;;;;4993886;28;19956;-84
2021/12/25 15:24:20;;;;;;;;;;;1.70;99.50;;;;;;4995532;28;19913;-80
2021/12/25 15:26:47;;;;;;;;;;;1.70;99.10;;;;;;4993888;28;19914;-81
2021/12/25 15:29:13;;;;;;;;;;;1.70;99.20;;;;;;4993491;28;19906;-79
2021/12/25 15:31:38;;;;;;;;;;;1.70;98.90;;;;;;4994851;28;19910;-82
2021/12/25 15:34:09;;;;;;;;;;;1.70;98.80;;;;;;4995059;28;19906;-80
2021/12/25 15:36:41;;;;;;;;;;;1.70;99.10;;;;;;4995232;28;19914;-79
2021/12/25 15:39:15;;;;;;;;;;;1.70;98.60;;;;;;4994908;28;19918;-79
2021/12/25 15:41:41;;;;;;;;;;;1.70;98.10;;;;;;4994779;28;19912;-80
2021/12/25 15:44:07;;;;;;;;;;;1.70;98.30;;;;;;4993071;28;19912;-79
2021/12/25 15:46:33;;;;;;;;;;;1.60;96.90;;;;;;4994472;28;19925;-80
2021/12/25 15:48:58;;;;;;;;;;;1.60;97.00;;;;;;4994188;28;20004;-79
2021/12/25 15:51:24;;;;;;;;;;;1.60;96.40;;;;;;4994580;28;19949;-79
2021/12/25 15:53:49;;;;;;;;;;;1.50;96.80;;;;;;4996613;28;19917;-80